sensor_id;sensor_type;location;lat;lon;timestamp;pressure;altitude;pressure_sealevel;temperature;humidity
15263;BME280;7733;51.554;13.590;2023-02-13T00:02:16;102661.44;;;8.19;100.00
15263;BME280;7733;51.554;13.590;2023-02-13T00:04:42;102662.41;;;8.21;100.00
15263;BME280;7733;51.554;13.590;2023-02-13T00:07:09;102662.41;;;8.21;100.00
15263;BME280;7733;51.554;13.590;2023-02-13T00:09:37;102662.16;;;8.14;100.00
15263;BME280;7733;51.554;13.590;2023-02-13T00:12:05;102667.50;;;8.18;100.00
15263;BME280;7733;51.554;13.590;2023-02-13T00:14:35;102661.56;;;8.22;100.00
15263;BME280;7733;51.554;13.590;2023-02-13T00:17:01;102663.44;;;8.27;100.00
15263;BME280;7733;51.554;13.590;2023-02-13T00:19:27;102666.25;;;8.33;100.00
15263;BME280;7733;51.554;13.590;2023-02-13T00:21:52;102665.00;;;8.47;100.00
15263;BME280;7733;51.554;13.590;2023-02-13T00:24:18;102666.84;;;8.51;100.00
15263;BME280;7733;51.554;13.590;2023-02-13T00:26:44;102661.97;;;8.62;100.00
15263;BME280;7733;51.554;13.590;2023-02-13T00:29:09;102660.47;;;8.70;100.00
15263;BME280;7733;51.554;13.590;2023-02-13T00:31:35;102659.28;;;8.60;100.00
15263;BME280;7733;51.554;13.590;2023-02-13T00:34:01;102655.47;;;8.49;100.00
15263;BME280;7733;51.554;13.590;2023-02-13T00:36:27;102658.59;;;8.66;100.00
15263;BME280;7733;51.554;13.590;2023-02-13T00:38:53;102657.06;;;8.44;100.00
15263;BME280;7733;51.554;13.590;2023-02-13T00:41:21;102657.84;;;8.41;100.00
15263;BME280;7733;51.554;13.590;2023-02-13T00:43:48;102653.13;;;8.31;100.00
15263;BME280;7733;51.554;13.590;2023-02-13T00:46:15;102662.25;;;8.42;100.00
15263;BME280;7733;51.554;13.590;2023-02-13T00:48:42;102654.13;;;8.35;100.00
15263;BME280;7733;51.554;13.590;2023-02-13T00:51:08;102657.06;;;8.44;100.00
15263;BME280;7733;51.554;13.590;2023-02-13T00:53:35;102660.03;;;8.56;100.00
15263;BME280;7733;51.554;13.590;2023-02-13T00:56:02;102656.03;;;8.67;100.00
15263;BME280;7733;51.554;13.590;2023-02-13T00:58:29;102648.13;;;8.66;100.00
15263;BME280;7733;51.554;13.590;2023-02-13T01:00:55;102652.84;;;8.22;100.00
15263;BME280;7733;51.554;13.590;2023-02-13T01:03:22;102644.16;;;8.50;100.00
15263;BME280;7733;51.554;13.590;2023-02-13T01:05:49;102644.81;;;8.71;100.00
15263;BME280;7733;51.554;13.590;2023-02-13T01:08:17;102646.88;;;8.53;100.00
15263;BME280;7733;51.554;13.590;2023-02-13T01:10:45;102644.81;;;8.43;100.00
15263;BME280;7733;51.554;13.590;2023-02-13T01:13:13;102639.25;;;8.61;100.00
15263;BME280;7733;51.554;13.590;2023-02-13T01:15:40;102650.88;;;8.70;100.00
15263;BME280;7733;51.554;13.590;2023-02-13T01:18:06;102650.50;;;8.58;100.00
15263;BME280;7733;51.554;13.590;2023-02-13T01:20:32;102646.38;;;8.65;100.00
15263;BME280;7733;51.554;13.590;2023-02-13T01:22:58;102645.13;;;8.53;100.00
15263;BME280;7733;51.554;13.590;2023-02-13T01:25:24;102632.69;;;8.45;100.00
15263;BME280;7733;51.554;13.590;2023-02-13T01:27:50;102646.53;;;8.71;100.00
15263;BME280;7733;51.554;13.590;2023-02-13T01:30:17;102644.59;;;8.37;100.00
15263;BME280;7733;51.554;13.590;2023-02-13T01:32:45;102644.44;;;8.59;100.00
15263;BME280;7733;51.554;13.590;2023-02-13T01:35:13;102638.88;;;8.48;100.00
15263;BME280;7733;51.554;13.590;2023-02-13T01:37:40;102643.41;;;8.54;100.00
15263;BME280;7733;51.554;13.590;2023-02-13T01:40:11;102637.91;;;8.45;100.00
15263;BME280;7733;51.554;13.590;2023-02-13T01:42:38;102639.38;;;8.37;100.00
15263;BME280;7733;51.554;13.590;2023-02-13T01:45:27;102640.31;;;8.39;100.00
15263;BME280;7733;51.554;13.590;2023-02-13T01:48:04;102637.44;;;8.31;100.00
15263;BME280;7733;51.554;13.590;2023-02-13T01:51:04;102640.94;;;8.32;100.00
15263;BME280;7733;51.554;13.590;2023-02-13T01:54:11;102642.00;;;8.37;100.00
15263;BME280;7733;51.554;13.590;2023-02-13T01:56:49;102634.63;;;8.25;100.00
15263;BME280;7733;51.554;13.590;2023-02-13T01:59:23;102629.44;;;8.27;100.00
15263;BME280;7733;51.554;13.590;2023-02-13T02:01:50;102631.44;;;8.34;100.00
15263;BME280;7733;51.554;13.590;2023-02-13T02:04:25;102621.03;;;8.35;100.00
15263;BME280;7733;51.554;13.590;2023-02-13T02:07:11;102625.38;;;8.35;100.00
15263;BME280;7733;51.554;13.590;2023-02-13T02:09:41;102620.81;;;8.29;100.00
15263;BME280;7733;51.554;13.590;2023-02-13T02:14:56;102623.06;;;8.18;100.00
15263;BME280;7733;51.554;13.590;2023-02-13T02:17:26;102628.44;;;8.21;100.00
15263;BME280;7733;51.554;13.590;2023-02-13T02:29:40;102624.00;;;8.20;100.00
15263;BME280;7733;51.554;13.590;2023-02-13T02:44:16;102628.44;;;8.21;100.00
15263;BME280;7733;51.554;13.590;2023-02-13T03:01:35;102622.81;;;8.36;100.00
15263;BME280;7733;51.554;13.590;2023-02-13T03:04:31;102629.44;;;8.27;100.00
15263;BME280;7733;51.554;13.590;2023-02-13T03:07:18;102634.53;;;8.49;100.00
15263;BME280;7733;51.554;13.590;2023-02-13T03:10:24;102630.34;;;8.27;100.00
15263;BME280;7733;51.554;13.590;2023-02-13T03:13:34;102637.59;;;8.36;100.00
15263;BME280;7733;51.554;13.590;2023-02-13T03:16:03;102636.75;;;8.37;100.00
15263;BME280;7733;51.554;13.590;2023-02-13T03:18:56;102641.94;;;8.35;100.00
15263;BME280;7733;51.554;13.590;2023-02-13T03:22:05;102643.13;;;8.45;100.00
15263;BME280;7733;51.554;13.590;2023-02-13T03:28:21;102633.88;;;8.56;100.00
15263;BME280;7733;51.554;13.590;2023-02-13T03:31:30;102637.47;;;8.33;100.00
15263;BME280;7733;51.554;13.590;2023-02-13T03:34:08;102643.81;;;8.39;100.00
15263;BME280;7733;51.554;13.590;2023-02-13T03:36:59;102635.97;;;8.39;100.00
15263;BME280;7733;51.554;13.590;2023-02-13T03:43:28;102646.38;;;8.38;100.00
15263;BME280;7733;51.554;13.590;2023-02-13T03:45:57;102638.28;;;8.30;100.00
15263;BME280;7733;51.554;13.590;2023-02-13T03:48:32;102643.31;;;8.51;100.00
15263;BME280;7733;51.554;13.590;2023-02-13T03:51:42;102646.28;;;8.62;100.00
15263;BME280;7733;51.554;13.590;2023-02-13T03:54:50;102647.22;;;8.37;100.00
15263;BME280;7733;51.554;13.590;2023-02-13T03:57:38;102639.69;;;8.46;100.00
15263;BME280;7733;51.554;13.590;2023-02-13T04:00:27;102647.63;;;8.22;100.00
15263;BME280;7733;51.554;13.590;2023-02-13T04:03:23;102642.94;;;8.39;100.00
15263;BME280;7733;51.554;13.590;2023-02-13T04:06:05;102643.50;;;8.30;100.00
15263;BME280;7733;51.554;13.590;2023-02-13T04:08:33;102651.88;;;8.20;100.00
15263;BME280;7733;51.554;13.590;2023-02-13T04:13:56;102645.28;;;8.31;100.00
15263;BME280;7733;51.554;13.590;2023-02-13T04:16:47;102641.25;;;8.41;100.00
15263;BME280;7733;51.554;13.590;2023-02-13T04:19:15;102649.84;;;8.37;100.00
15263;BME280;7733;51.554;13.590;2023-02-13T04:21:41;102638.22;;;8.29;100.00
15263;BME280;7733;51.554;13.590;2023-02-13T04:24:08;102642.94;;;8.39;100.00
15263;BME280;7733;51.554;13.590;2023-02-13T04:26:39;102645.72;;;8.43;100.00
15263;BME280;7733;51.554;13.590;2023-02-13T04:29:05;102646.47;;;8.41;100.00
15263;BME280;7733;51.554;13.590;2023-02-13T04:31:31;102643.81;;;8.39;100.00
15263;BME280;7733;51.554;13.590;2023-02-13T04:33:57;102646.56;;;8.42;100.00
15263;BME280;7733;51.554;13.590;2023-02-13T04:36:23;102642.88;;;8.37;100.00
15263;BME280;7733;51.554;13.590;2023-02-13T04:38:49;102640.16;;;8.34;100.00
15263;BME280;7733;51.554;13.590;2023-02-13T04:41:15;102638.94;;;8.23;100.00
15263;BME280;7733;51.554;13.590;2023-02-13T04:43:41;102641.06;;;8.35;100.00
15263;BME280;7733;51.554;13.590;2023-02-13T04:46:07;102642.59;;;8.57;100.00
15263;BME280;7733;51.554;13.590;2023-02-13T04:48:32;102636.13;;;8.44;100.00
15263;BME280;7733;51.554;13.590;2023-02-13T04:50:58;102635.47;;;8.51;100.00
15263;BME280;7733;51.554;13.590;2023-02-13T04:53:24;102634.47;;;8.76;100.00
15263;BME280;7733;51.554;13.590;2023-02-13T04:55:51;102643.31;;;8.51;100.00
15263;BME280;7733;51.554;13.590;2023-02-13T04:58:17;102639.03;;;8.53;100.00
15263;BME280;7733;51.554;13.590;2023-02-13T05:00:42;102639.09;;;8.56;100.00
15263;BME280;7733;51.554;13.590;2023-02-13T05:03:12;102638.50;;;8.65;100.00
15263;BME280;7733;51.554;13.590;2023-02-13T05:05:39;102638.78;;;8.74;100.00
15263;BME280;7733;51.554;13.590;2023-02-13T05:08:08;102639.44;;;8.67;100.00
15263;BME280;7733;51.554;13.590;2023-02-13T05:10:34;102647.03;;;8.59;100.00
15263;BME280;7733;51.554;13.590;2023-02-13T05:13:01;102636.31;;;8.50;100.00
15263;BME280;7733;51.554;13.590;2023-02-13T05:15:26;102647.25;;;8.38;100.00
15263;BME280;7733;51.554;13.590;2023-02-13T05:17:53;102638.75;;;8.18;100.00
15263;BME280;7733;51.554;13.590;2023-02-13T05:20:19;102643.41;;;8.27;100.00
15263;BME280;7733;51.554;13.590;2023-02-13T05:22:50;102650.16;;;8.20;100.00
15263;BME280;7733;51.554;13.590;2023-02-13T05:25:39;102647.31;;;8.13;100.00
15263;BME280;7733;51.554;13.590;2023-02-13T05:28:06;102643.31;;;8.24;100.00
15263;BME280;7733;51.554;13.590;2023-02-13T05:30:52;102651.72;;;8.15;100.00
15263;BME280;7733;51.554;13.590;2023-02-13T05:33:17;102657.00;;;7.90;100.00
15263;BME280;7733;51.554;13.590;2023-02-13T05:35:43;102650.34;;;8.00;100.00
15263;BME280;7733;51.554;13.590;2023-02-13T05:38:09;102645.28;;;8.04;100.00
15263;BME280;7733;51.554;13.590;2023-02-13T05:40:34;102651.97;;;7.96;100.00
15263;BME280;7733;51.554;13.590;2023-02-13T05:43:00;102645.38;;;8.07;100.00
15263;BME280;7733;51.554;13.590;2023-02-13T05:45:26;102651.03;;;7.94;100.00
15263;BME280;7733;51.554;13.590;2023-02-13T05:47:51;102641.59;;;7.99;100.00
15263;BME280;7733;51.554;13.590;2023-02-13T05:50:17;102641.59;;;7.99;100.00
15263;BME280;7733;51.554;13.590;2023-02-13T05:52:43;102641.38;;;7.91;100.00
15263;BME280;7733;51.554;13.590;2023-02-13T05:55:09;102643.50;;;8.03;100.00
15263;BME280;7733;51.554;13.590;2023-02-13T05:57:34;102647.91;;;8.04;100.00
15263;BME280;7733;51.554;13.590;2023-02-13T06:00:00;102648.75;;;8.03;100.00
15263;BME280;7733;51.554;13.590;2023-02-13T06:02:26;102646.84;;;7.99;100.00
15263;BME280;7733;51.554;13.590;2023-02-13T06:04:51;102657.91;;;8.17;100.00
15263;BME280;7733;51.554;13.590;2023-02-13T06:07:17;102655.41;;;8.47;100.00
15263;BME280;7733;51.554;13.590;2023-02-13T06:09:43;102657.63;;;8.35;100.00
15263;BME280;7733;51.554;13.590;2023-02-13T06:12:08;102645.56;;;8.13;100.00
15263;BME280;7733;51.554;13.590;2023-02-13T06:14:34;102649.09;;;8.41;100.00
15263;BME280;7733;51.554;13.590;2023-02-13T06:17:00;102653.69;;;8.21;100.00
15263;BME280;7733;51.554;13.590;2023-02-13T06:19:26;102648.31;;;8.18;100.00
15263;BME280;7733;51.554;13.590;2023-02-13T06:21:52;102651.50;;;8.08;100.00
15263;BME280;7733;51.554;13.590;2023-02-13T06:24:17;102661.91;;;8.06;100.00
15263;BME280;7733;51.554;13.590;2023-02-13T06:26:43;102651.31;;;8.02;100.00
15263;BME280;7733;51.554;13.590;2023-02-13T06:29:09;102650.97;;;7.92;100.00
15263;BME280;7733;51.554;13.590;2023-02-13T06:31:35;102653.78;;;7.99;100.00
15263;BME280;7733;51.554;13.590;2023-02-13T06:34:01;102655.75;;;8.04;100.00
15263;BME280;7733;51.554;13.590;2023-02-13T06:36:27;102658.78;;;8.18;100.00
15263;BME280;7733;51.554;13.590;2023-02-13T06:38:53;102656.03;;;8.13;100.00
15263;BME280;7733;51.554;13.590;2023-02-13T06:41:18;102671.19;;;8.23;100.00
15263;BME280;7733;51.554;13.590;2023-02-13T06:43:44;102671.25;;;8.25;100.00
15263;BME280;7733;51.554;13.590;2023-02-13T06:46:10;102678.16;;;8.23;100.00
15263;BME280;7733;51.554;13.590;2023-02-13T06:48:36;102684.75;;;8.39;100.00
15263;BME280;7733;51.554;13.590;2023-02-13T06:51:01;102692.81;;;8.19;100.00
15263;BME280;7733;51.554;13.590;2023-02-13T06:53:28;102685.53;;;8.09;100.00
15263;BME280;7733;51.554;13.590;2023-02-13T06:55:55;102691.88;;;8.17;100.00
15263;BME280;7733;51.554;13.590;2023-02-13T06:58:24;102682.44;;;7.96;100.00
15263;BME280;7733;51.554;13.590;2023-02-13T07:00:51;102695.25;;;8.13;100.00
15263;BME280;7733;51.554;13.590;2023-02-13T07:03:17;102696.06;;;8.12;100.00
15263;BME280;7733;51.554;13.590;2023-02-13T07:05:44;102695.66;;;8.26;100.00
15263;BME280;7733;51.554;13.590;2023-02-13T07:08:11;102699.06;;;8.23;100.00
15263;BME280;7733;51.554;13.590;2023-02-13T07:10:39;102706.53;;;8.12;100.00
15263;BME280;7733;51.554;13.590;2023-02-13T07:13:07;102702.66;;;8.27;100.00
15263;BME280;7733;51.554;13.590;2023-02-13T07:15:34;102699.13;;;8.24;100.00
15263;BME280;7733;51.554;13.590;2023-02-13T07:18:00;102704.44;;;8.28;100.00
15263;BME280;7733;51.554;13.590;2023-02-13T07:20:26;102708.22;;;8.10;100.00
15263;BME280;7733;51.554;13.590;2023-02-13T07:22:56;102710.50;;;8.27;100.00
15263;BME280;7733;51.554;13.590;2023-02-13T07:25:21;102708.50;;;8.19;100.00
15263;BME280;7733;51.554;13.590;2023-02-13T07:27:47;102707.56;;;8.17;100.00
15263;BME280;7733;51.554;13.590;2023-02-13T07:30:13;102713.94;;;8.00;100.00
15263;BME280;7733;51.554;13.590;2023-02-13T07:32:39;102712.75;;;8.16;100.00
15263;BME280;7733;51.554;13.590;2023-02-13T07:35:05;102711.47;;;8.03;100.00
15263;BME280;7733;51.554;13.590;2023-02-13T07:37:31;102706.22;;;8.29;100.00
15263;BME280;7733;51.554;13.590;2023-02-13T07:39:56;102701.34;;;8.39;100.00
15263;BME280;7733;51.554;13.590;2023-02-13T07:42:22;102701.88;;;8.29;100.00
15263;BME280;7733;51.554;13.590;2023-02-13T07:44:48;102708.63;;;8.22;100.00
15263;BME280;7733;51.554;13.590;2023-02-13T07:47:14;102702.84;;;8.33;100.00
15263;BME280;7733;51.554;13.590;2023-02-13T07:49:39;102706.53;;;8.38;100.00
15263;BME280;7733;51.554;13.590;2023-02-13T07:52:06;102706.72;;;8.42;100.00
15263;BME280;7733;51.554;13.590;2023-02-13T07:54:32;102707.16;;;8.31;100.00
15263;BME280;7733;51.554;13.590;2023-02-13T07:56:58;102714.38;;;8.38;100.00
15263;BME280;7733;51.554;13.590;2023-02-13T07:59:24;102710.41;;;8.49;100.00
15263;BME280;7733;51.554;13.590;2023-02-13T08:01:50;102717.50;;;8.28;100.00
15263;BME280;7733;51.554;13.590;2023-02-13T08:04:16;102724.75;;;8.35;100.00
15263;BME280;7733;51.554;13.590;2023-02-13T08:06:42;102716.66;;;8.54;100.00
15263;BME280;7733;51.554;13.590;2023-02-13T08:09:18;102716.75;;;8.57;100.00
15263;BME280;7733;51.554;13.590;2023-02-13T08:12:06;102719.69;;;8.41;100.00
15263;BME280;7733;51.554;13.590;2023-02-13T08:14:32;102719.19;;;8.26;100.00
15263;BME280;7733;51.554;13.590;2023-02-13T08:16:59;102720.34;;;8.08;100.00
15263;BME280;7733;51.554;13.590;2023-02-13T08:19:26;102724.97;;;8.17;100.00
15263;BME280;7733;51.554;13.590;2023-02-13T08:21:52;102716.56;;;8.00;100.00
15263;BME280;7733;51.554;13.590;2023-02-13T08:24:18;102715.22;;;8.11;100.00
15263;BME280;7733;51.554;13.590;2023-02-13T08:26:44;102717.41;;;8.24;100.00
15263;BME280;7733;51.554;13.590;2023-02-13T08:29:09;102719.81;;;8.18;100.00
15263;BME280;7733;51.554;13.590;2023-02-13T08:31:36;102729.22;;;8.13;100.00
15263;BME280;7733;51.554;13.590;2023-02-13T08:34:02;102720.81;;;7.97;100.00
15263;BME280;7733;51.554;13.590;2023-02-13T08:36:28;102721.78;;;8.00;100.00
15263;BME280;7733;51.554;13.590;2023-02-13T08:38:54;102725.25;;;7.99;100.00
15263;BME280;7733;51.554;13.590;2023-02-13T08:41:19;102724.78;;;8.11;100.00
15263;BME280;7733;51.554;13.590;2023-02-13T08:43:47;102725.44;;;8.04;100.00
15263;BME280;7733;51.554;13.590;2023-02-13T08:46:15;102727.25;;;8.06;100.00
15263;BME280;7733;51.554;13.590;2023-02-13T08:48:41;102736.91;;;8.09;100.00
15263;BME280;7733;51.554;13.590;2023-02-13T08:51:09;102730.59;;;8.02;100.00
15263;BME280;7733;51.554;13.590;2023-02-13T08:53:36;102727.59;;;8.17;100.00
15263;BME280;7733;51.554;13.590;2023-02-13T08:56:02;102727.25;;;8.06;100.00
15263;BME280;7733;51.554;13.590;2023-02-13T08:58:28;102730.16;;;7.90;100.00
15263;BME280;7733;51.554;13.590;2023-02-13T09:00:54;102732.78;;;8.15;100.00
15263;BME280;7733;51.554;13.590;2023-02-13T09:03:20;102725.81;;;8.16;100.00
15263;BME280;7733;51.554;13.590;2023-02-13T09:05:46;102739.38;;;8.04;100.00
15263;BME280;7733;51.554;13.590;2023-02-13T09:08:12;102736.22;;;8.14;100.00
15263;BME280;7733;51.554;13.590;2023-02-13T09:10:40;102735.50;;;8.18;100.00
15263;BME280;7733;51.554;13.590;2023-02-13T09:13:06;102737.41;;;8.22;100.00
15263;BME280;7733;51.554;13.590;2023-02-13T09:15:32;102736.44;;;8.20;100.00
15263;BME280;7733;51.554;13.590;2023-02-13T09:17:58;102731.59;;;8.06;100.00
15263;BME280;7733;51.554;13.590;2023-02-13T09:20:24;102737.63;;;8.30;100.00
15263;BME280;7733;51.554;13.590;2023-02-13T09:22:50;102743.81;;;8.32;100.00
15263;BME280;7733;51.554;13.590;2023-02-13T09:25:15;102743.13;;;8.12;100.00
15263;BME280;7733;51.554;13.590;2023-02-13T09:27:41;102741.41;;;8.13;100.00
15263;BME280;7733;51.554;13.590;2023-02-13T09:30:09;102743.88;;;8.34;100.00
15263;BME280;7733;51.554;13.590;2023-02-13T09:32:36;102744.34;;;8.22;100.00
15263;BME280;7733;51.554;13.590;2023-02-13T09:35:04;102744.06;;;8.14;100.00
15263;BME280;7733;51.554;13.590;2023-02-13T09:37:31;102740.94;;;7.99;100.00
15263;BME280;7733;51.554;13.590;2023-02-13T09:39:57;102745.34;;;8.26;100.00
15263;BME280;7733;51.554;13.590;2023-02-13T09:42:28;102741.22;;;8.07;100.00
15263;BME280;7733;51.554;13.590;2023-02-13T09:45:00;102731.00;;;8.14;100.00
15263;BME280;7733;51.554;13.590;2023-02-13T09:47:31;102744.06;;;8.40;100.00
15263;BME280;7733;51.554;13.590;2023-02-13T09:50:26;102740.00;;;8.22;100.00
15263;BME280;7733;51.554;13.590;2023-02-13T09:52:57;102738.88;;;8.67;100.00
15263;BME280;7733;51.554;13.590;2023-02-13T09:55:51;102744.50;;;8.52;100.00
15263;BME280;7733;51.554;13.590;2023-02-13T10:01:16;102736.56;;;8.77;100.00
15263;BME280;7733;51.554;13.590;2023-02-13T10:06:50;102746.69;;;8.65;100.00
15263;BME280;7733;51.554;13.590;2023-02-13T10:09:49;102744.91;;;8.64;100.00
15263;BME280;7733;51.554;13.590;2023-02-13T10:12:43;102743.09;;;8.36;100.00
15263;BME280;7733;51.554;13.590;2023-02-13T10:17:47;102738.19;;;8.45;100.00
15263;BME280;7733;51.554;13.590;2023-02-13T10:20:46;102736.13;;;8.62;100.00
15263;BME280;7733;51.554;13.590;2023-02-13T10:26:26;102736.13;;;8.62;100.00
15263;BME280;7733;51.554;13.590;2023-02-13T10:32:02;102738.31;;;8.50;100.00
15263;BME280;7733;51.554;13.590;2023-02-13T10:34:37;102737.47;;;8.51;100.00
15263;BME280;7733;51.554;13.590;2023-02-13T10:37:17;102728.97;;;8.85;100.00
15263;BME280;7733;51.554;13.590;2023-02-13T10:39:48;102729.72;;;8.54;100.00
15263;BME280;7733;51.554;13.590;2023-02-13T10:43:05;102731.09;;;8.70;100.00
15263;BME280;7733;51.554;13.590;2023-02-13T10:45:51;102735.38;;;8.41;100.00
15263;BME280;7733;51.554;13.590;2023-02-13T10:48:58;102723.94;;;8.37;100.00
15263;BME280;7733;51.554;13.590;2023-02-13T10:51:47;102719.81;;;8.44;100.00
15263;BME280;7733;51.554;13.590;2023-02-13T10:54:53;102707.53;;;8.68;100.00
15263;BME280;7733;51.554;13.590;2023-02-13T11:00:36;102699.19;;;8.53;100.00
15263;BME280;7733;51.554;13.590;2023-02-13T11:03:03;102695.91;;;8.60;100.00
15263;BME280;7733;51.554;13.590;2023-02-13T11:05:37;102686.13;;;8.81;100.00
15263;BME280;7733;51.554;13.590;2023-02-13T11:08:24;102695.16;;;8.63;100.00
15263;BME280;7733;51.554;13.590;2023-02-13T11:10:51;102689.28;;;8.71;100.00
15263;BME280;7733;51.554;13.590;2023-02-13T11:13:28;102690.50;;;8.54;100.00
15263;BME280;7733;51.554;13.590;2023-02-13T11:16:07;102687.56;;;8.43;100.00
15263;BME280;7733;51.554;13.590;2023-02-13T11:18:40;102687.91;;;8.29;100.00
15263;BME280;7733;51.554;13.590;2023-02-13T11:21:15;102698.38;;;8.29;100.00
15263;BME280;7733;51.554;13.590;2023-02-13T11:23:54;102697.44;;;8.27;100.00
15263;BME280;7733;51.554;13.590;2023-02-13T11:26:33;102689.81;;;8.07;100.00
15263;BME280;7733;51.554;13.590;2023-02-13T11:29:05;102695.50;;;8.21;100.00
15263;BME280;7733;51.554;13.590;2023-02-13T11:31:40;102691.41;;;8.29;100.00
15263;BME280;7733;51.554;13.590;2023-02-13T11:34:24;102689.44;;;8.22;100.00
15263;BME280;7733;51.554;13.590;2023-02-13T11:36:53;102682.00;;;8.34;100.00
15263;BME280;7733;51.554;13.590;2023-02-13T11:39:22;102677.53;;;8.32;100.00
15263;BME280;7733;51.554;13.590;2023-02-13T11:41:51;102684.69;;;8.36;100.00
15263;BME280;7733;51.554;13.590;2023-02-13T11:44:30;102685.34;;;8.30;100.00
15263;BME280;7733;51.554;13.590;2023-02-13T11:46:59;102677.19;;;8.46;100.00
15263;BME280;7733;51.554;13.590;2023-02-13T11:49:32;102670.25;;;8.21;100.00
15263;BME280;7733;51.554;13.590;2023-02-13T11:52:04;102677.41;;;8.54;100.00
15263;BME280;7733;51.554;13.590;2023-02-13T11:54:35;102674.94;;;8.32;100.00
15263;BME280;7733;51.554;13.590;2023-02-13T11:57:19;102663.34;;;8.50;100.00
15263;BME280;7733;51.554;13.590;2023-02-13T11:59:48;102665.94;;;8.49;100.00
15263;BME280;7733;51.554;13.590;2023-02-13T12:02:22;102660.19;;;8.34;100.00
15263;BME280;7733;51.554;13.590;2023-02-13T12:04:52;102661.53;;;8.48;100.00
15263;BME280;7733;51.554;13.590;2023-02-13T12:07:26;102664.91;;;8.44;100.00
15263;BME280;7733;51.554;13.590;2023-02-13T12:10:19;102669.25;;;8.72;100.00
15263;BME280;7733;51.554;13.590;2023-02-13T12:13:31;102658.88;;;8.75;100.00
15263;BME280;7733;51.554;13.590;2023-02-13T12:16:30;102659.06;;;8.81;100.00
15263;BME280;7733;51.554;13.590;2023-02-13T12:19:04;102651.84;;;8.74;100.00
15263;BME280;7733;51.554;13.590;2023-02-13T12:22:06;102663.94;;;8.69;100.00
15263;BME280;7733;51.554;13.590;2023-02-13T12:27:42;102651.59;;;8.65;100.00
15263;BME280;7733;51.554;13.590;2023-02-13T12:36:31;102647.34;;;8.68;100.00
15263;BME280;7733;51.554;13.590;2023-02-13T12:48:24;102633.66;;;8.78;100.00
15263;BME280;7733;51.554;13.590;2023-02-13T12:50:51;102627.47;;;9.05;100.00
15263;BME280;7733;51.554;13.590;2023-02-13T12:56:19;102637.34;;;8.83;100.00
15263;BME280;7733;51.554;13.590;2023-02-13T13:02:12;102632.63;;;8.72;100.00
15263;BME280;7733;51.554;13.590;2023-02-13T13:05:16;102645.25;;;8.58;100.00
15263;BME280;7733;51.554;13.590;2023-02-13T13:11:26;102630.41;;;8.86;100.00
15263;BME280;7733;51.554;13.590;2023-02-13T13:14:21;102635.44;;;8.79;100.00
15263;BME280;7733;51.554;13.590;2023-02-13T13:17:31;102635.44;;;8.79;100.00
15263;BME280;7733;51.554;13.590;2023-02-13T13:22:59;102637.22;;;8.80;100.00
15263;BME280;7733;51.554;13.590;2023-02-13T13:28:29;102645.16;;;8.82;100.00
15263;BME280;7733;51.554;13.590;2023-02-13T13:30:57;102638.19;;;8.82;100.00
15263;BME280;7733;51.554;13.590;2023-02-13T13:33:26;102640.88;;;8.86;100.00
15263;BME280;7733;51.554;13.590;2023-02-13T13:36:46;102649.19;;;8.72;100.00
15263;BME280;7733;51.554;13.590;2023-02-13T13:39:18;102652.66;;;8.71;100.00
15263;BME280;7733;51.554;13.590;2023-02-13T13:50:26;102659.00;;;8.51;100.00
15263;BME280;7733;51.554;13.590;2023-02-13T13:53:13;102658.41;;;8.60;100.00
15263;BME280;7733;51.554;13.590;2023-02-13T13:58:25;102644.81;;;8.71;100.00
15263;BME280;7733;51.554;13.590;2023-02-13T14:01:27;102651.78;;;8.71;100.00
15263;BME280;7733;51.554;13.590;2023-02-13T14:11:54;102635.81;;;8.92;100.00
15263;BME280;7733;51.554;13.590;2023-02-13T14:16:57;102630.66;;;8.95;100.00
15263;BME280;7733;51.554;13.590;2023-02-13T14:24:51;102628.91;;;8.64;100.00
15263;BME280;7733;51.554;13.590;2023-02-13T14:27:38;102622.56;;;8.57;100.00
15263;BME280;7733;51.554;13.590;2023-02-13T14:30:29;102618.19;;;8.56;100.00
15263;BME280;7733;51.554;13.590;2023-02-13T14:33:02;102620.63;;;8.50;100.00
15263;BME280;7733;51.554;13.590;2023-02-13T14:35:34;102619.22;;;8.61;100.00
15263;BME280;7733;51.554;13.590;2023-02-13T14:38:05;102613.88;;;8.58;100.00
15263;BME280;7733;51.554;13.590;2023-02-13T14:40:50;102612.09;;;8.57;100.00
15263;BME280;7733;51.554;13.590;2023-02-13T14:43:38;102605.47;;;8.68;100.00
15263;BME280;7733;51.554;13.590;2023-02-13T14:46:34;102605.28;;;8.92;100.00
15263;BME280;7733;51.554;13.590;2023-02-13T14:49:22;102605.03;;;8.83;100.00
15263;BME280;7733;51.554;13.590;2023-02-13T14:52:03;102610.00;;;9.04;100.00
15263;BME280;7733;51.554;13.590;2023-02-13T14:54:38;102601.66;;;8.87;100.00
15263;BME280;7733;51.554;13.590;2023-02-13T14:57:19;102593.13;;;8.94;100.00
15263;BME280;7733;51.554;13.590;2023-02-13T15:02:45;102584.31;;;8.91;100.00
15263;BME280;7733;51.554;13.590;2023-02-13T15:05:16;102578.38;;;8.66;100.00
15263;BME280;7733;51.554;13.590;2023-02-13T15:08:01;102570.81;;;8.77;100.00
15263;BME280;7733;51.554;13.590;2023-02-13T15:13:04;102556.72;;;9.02;100.00
15263;BME280;7733;51.554;13.590;2023-02-13T15:15:34;102556.56;;;8.97;100.00
15263;BME280;7733;51.554;13.590;2023-02-13T15:18:13;102570.03;;;9.11;100.00
15263;BME280;7733;51.554;13.590;2023-02-13T15:20:42;102569.97;;;9.08;100.00
15263;BME280;7733;51.554;13.590;2023-02-13T15:23:21;102572.63;;;9.09;100.00
15263;BME280;7733;51.554;13.590;2023-02-13T15:26:02;102576.22;;;9.13;100.00
15263;BME280;7733;51.554;13.590;2023-02-13T15:28:30;102587.31;;;9.04;100.00
15263;BME280;7733;51.554;13.590;2023-02-13T15:31:01;102591.72;;;9.38;100.00
15263;BME280;7733;51.554;13.590;2023-02-13T15:33:40;102589.59;;;9.24;100.00
15263;BME280;7733;51.554;13.590;2023-02-13T15:36:23;102586.25;;;9.29;100.00